sensor_id;sensor_type;location;lat;lon;timestamp;P1;durP1;ratioP1;P2;durP2;ratioP2
9418;SDS011;4748;50.802;7.132;2022-08-21T03:30:48;4.83;;;1.40;;
9418;SDS011;4748;50.802;7.132;2022-08-21T03:33:15;4.27;;;1.83;;
9418;SDS011;4748;50.802;7.132;2022-08-21T03:35:42;4.03;;;2.40;;
9418;SDS011;4748;50.802;7.132;2022-08-21T03:38:09;2.70;;;1.40;;
9418;SDS011;4748;50.802;7.132;2022-08-21T03:40:37;4.53;;;2.17;;
9418;SDS011;4748;50.802;7.132;2022-08-21T03:43:03;5.10;;;2.00;;
9418;SDS011;4748;50.802;7.132;2022-08-21T03:45:28;2.80;;;1.90;;
9418;SDS011;4748;50.802;7.132;2022-08-21T03:47:58;1.80;;;1.70;;
9418;SDS011;4748;50.802;7.132;2022-08-21T03:50:26;2.17;;;1.63;;
9418;SDS011;4748;50.802;7.132;2022-08-21T03:52:57;5.27;;;2.13;;
9418;SDS011;4748;50.802;7.132;2022-08-21T03:55:23;2.83;;;1.80;;
9418;SDS011;4748;50.802;7.132;2022-08-21T03:57:48;2.93;;;1.73;;
9418;SDS011;4748;50.802;7.132;2022-08-21T04:00:14;6.10;;;2.10;;
9418;SDS011;4748;50.802;7.132;2022-08-21T04:02:41;2.63;;;2.43;;
9418;SDS011;4748;50.802;7.132;2022-08-21T04:05:08;2.33;;;1.67;;
9418;SDS011;4748;50.802;7.132;2022-08-21T04:07:34;4.13;;;2.50;;
9418;SDS011;4748;50.802;7.132;2022-08-21T04:10:01;4.67;;;2.10;;
9418;SDS011;4748;50.802;7.132;2022-08-21T04:12:26;1.70;;;1.60;;
9418;SDS011;4748;50.802;7.132;2022-08-21T04:14:52;4.23;;;2.57;;
9418;SDS011;4748;50.802;7.132;2022-08-21T04:17:17;3.80;;;1.87;;
9418;SDS011;4748;50.802;7.132;2022-08-21T04:19:43;2.23;;;1.87;;
9418;SDS011;4748;50.802;7.132;2022-08-21T04:22:09;3.53;;;1.87;;
9418;SDS011;4748;50.802;7.132;2022-08-21T04:24:34;3.70;;;2.30;;
9418;SDS011;4748;50.802;7.132;2022-08-21T04:26:59;1.70;;;1.60;;
9418;SDS011;4748;50.802;7.132;2022-08-21T04:29:25;2.97;;;1.40;;
9418;SDS011;4748;50.802;7.132;2022-08-21T04:31:50;1.93;;;1.77;;
9418;SDS011;4748;50.802;7.132;2022-08-21T04:34:17;4.17;;;2.33;;
9418;SDS011;4748;50.802;7.132;2022-08-21T04:36:43;7.60;;;2.70;;
9418;SDS011;4748;50.802;7.132;2022-08-21T04:39:08;2.57;;;1.90;;
9418;SDS011;4748;50.802;7.132;2022-08-21T04:41:34;1.87;;;1.77;;
9418;SDS011;4748;50.802;7.132;2022-08-21T04:44:00;7.07;;;2.30;;
9418;SDS011;4748;50.802;7.132;2022-08-21T04:46:26;2.63;;;1.83;;
9418;SDS011;4748;50.802;7.132;2022-08-21T04:48:51;3.27;;;1.73;;
9418;SDS011;4748;50.802;7.132;2022-08-21T04:51:24;4.20;;;2.93;;
9418;SDS011;4748;50.802;7.132;2022-08-21T04:53:59;2.63;;;2.10;;
9418;SDS011;4748;50.802;7.132;2022-08-21T04:56:29;3.13;;;2.03;;
9418;SDS011;4748;50.802;7.132;2022-08-21T04:58:59;3.07;;;1.83;;
9418;SDS011;4748;50.802;7.132;2022-08-21T05:01:30;4.60;;;2.23;;
9418;SDS011;4748;50.802;7.132;2022-08-21T05:03:59;4.00;;;2.17;;
9418;SDS011;4748;50.802;7.132;2022-08-21T05:06:26;2.70;;;2.17;;
9418;SDS011;4748;50.802;7.132;2022-08-21T05:08:56;7.07;;;2.70;;
9418;SDS011;4748;50.802;7.132;2022-08-21T05:11:22;2.73;;;2.17;;
9418;SDS011;4748;50.802;7.132;2022-08-21T05:13:48;2.50;;;2.13;;
9418;SDS011;4748;50.802;7.132;2022-08-21T05:16:14;6.33;;;2.17;;
9418;SDS011;4748;50.802;7.132;2022-08-21T05:18:40;4.70;;;2.30;;
9418;SDS011;4748;50.802;7.132;2022-08-21T05:21:06;3.17;;;1.47;;
9418;SDS011;4748;50.802;7.132;2022-08-21T05:23:31;2.97;;;2.70;;
9418;SDS011;4748;50.802;7.132;2022-08-21T05:25:57;3.33;;;2.20;;
9418;SDS011;4748;50.802;7.132;2022-08-21T05:28:23;3.60;;;2.33;;
9418;SDS011;4748;50.802;7.132;2022-08-21T05:30:48;2.87;;;2.57;;
9418;SDS011;4748;50.802;7.132;2022-08-21T05:33:14;2.90;;;2.70;;
9418;SDS011;4748;50.802;7.132;2022-08-21T05:35:40;3.77;;;1.70;;
9418;SDS011;4748;50.802;7.132;2022-08-21T05:38:06;3.00;;;2.17;;
9418;SDS011;4748;50.802;7.132;2022-08-21T05:40:32;2.27;;;2.07;;
9418;SDS011;4748;50.802;7.132;2022-08-21T05:42:57;2.00;;;1.90;;
9418;SDS011;4748;50.802;7.132;2022-08-21T05:45:25;2.63;;;2.40;;
9418;SDS011;4748;50.802;7.132;2022-08-21T05:47:53;2.87;;;2.27;;
9418;SDS011;4748;50.802;7.132;2022-08-21T05:50:19;2.93;;;2.10;;
9418;SDS011;4748;50.802;7.132;2022-08-21T05:52:45;5.43;;;2.77;;
9418;SDS011;4748;50.802;7.132;2022-08-21T05:55:11;2.90;;;2.27;;
9418;SDS011;4748;50.802;7.132;2022-08-21T05:57:36;2.57;;;2.23;;
9418;SDS011;4748;50.802;7.132;2022-08-21T06:00:05;3.30;;;2.13;;
9418;SDS011;4748;50.802;7.132;2022-08-21T06:02:34;5.03;;;2.43;;
9418;SDS011;4748;50.802;7.132;2022-08-21T06:04:59;5.60;;;2.40;;
9418;SDS011;4748;50.802;7.132;2022-08-21T06:07:25;4.17;;;1.80;;
9418;SDS011;4748;50.802;7.132;2022-08-21T06:09:50;3.37;;;1.73;;
9418;SDS011;4748;50.802;7.132;2022-08-21T06:12:15;3.90;;;2.30;;
9418;SDS011;4748;50.802;7.132;2022-08-21T06:14:42;2.73;;;2.50;;
9418;SDS011;4748;50.802;7.132;2022-08-21T06:17:11;2.97;;;2.23;;
9418;SDS011;4748;50.802;7.132;2022-08-21T06:19:38;6.43;;;2.40;;
9418;SDS011;4748;50.802;7.132;2022-08-21T06:22:04;3.50;;;2.93;;
9418;SDS011;4748;50.802;7.132;2022-08-21T06:24:29;2.30;;;1.93;;
9418;SDS011;4748;50.802;7.132;2022-08-21T06:26:56;7.43;;;3.00;;
9418;SDS011;4748;50.802;7.132;2022-08-21T06:29:21;3.43;;;2.83;;
9418;SDS011;4748;50.802;7.132;2022-08-21T06:31:48;2.73;;;2.53;;
9418;SDS011;4748;50.802;7.132;2022-08-21T06:34:14;5.93;;;2.00;;
9418;SDS011;4748;50.802;7.132;2022-08-21T06:36:40;6.53;;;2.43;;
9418;SDS011;4748;50.802;7.132;2022-08-21T06:39:05;7.17;;;2.27;;
9418;SDS011;4748;50.802;7.132;2022-08-21T06:41:31;4.97;;;3.07;;
9418;SDS011;4748;50.802;7.132;2022-08-21T06:43:57;2.70;;;2.50;;
9418;SDS011;4748;50.802;7.132;2022-08-21T06:46:27;6.87;;;3.00;;
9418;SDS011;4748;50.802;7.132;2022-08-21T06:48:53;3.50;;;2.60;;
9418;SDS011;4748;50.802;7.132;2022-08-21T06:51:19;4.33;;;2.60;;
9418;SDS011;4748;50.802;7.132;2022-08-21T06:53:44;8.27;;;3.53;;
9418;SDS011;4748;50.802;7.132;2022-08-21T06:56:11;2.67;;;2.33;;
9418;SDS011;4748;50.802;7.132;2022-08-21T06:58:36;3.47;;;2.43;;
9418;SDS011;4748;50.802;7.132;2022-08-21T07:01:02;5.10;;;2.23;;
9418;SDS011;4748;50.802;7.132;2022-08-21T07:03:29;3.73;;;2.07;;
9418;SDS011;4748;50.802;7.132;2022-08-21T07:05:56;4.90;;;2.50;;
9418;SDS011;4748;50.802;7.132;2022-08-21T07:08:23;3.90;;;2.07;;
9418;SDS011;4748;50.802;7.132;2022-08-21T07:10:49;4.17;;;2.50;;
9418;SDS011;4748;50.802;7.132;2022-08-21T07:13:16;9.63;;;2.23;;
9418;SDS011;4748;50.802;7.132;2022-08-21T07:15:41;2.73;;;2.40;;
9418;SDS011;4748;50.802;7.132;2022-08-21T07:18:07;6.57;;;2.40;;
9418;SDS011;4748;50.802;7.132;2022-08-21T07:20:32;7.83;;;2.13;;
9418;SDS011;4748;50.802;7.132;2022-08-21T07:22:59;2.53;;;2.07;;
9418;SDS011;4748;50.802;7.132;2022-08-21T07:25:30;3.20;;;1.70;;
9418;SDS011;4748;50.802;7.132;2022-08-21T07:27:56;3.30;;;2.23;;
9418;SDS011;4748;50.802;7.132;2022-08-21T07:30:22;1.83;;;1.73;;
9418;SDS011;4748;50.802;7.132;2022-08-21T07:32:48;3.90;;;1.88;;
9418;SDS011;4748;50.802;7.132;2022-08-21T07:35:16;4.68;;;2.17;;
9418;SDS011;4748;50.802;7.132;2022-08-21T07:37:43;4.10;;;1.73;;
9418;SDS011;4748;50.802;7.132;2022-08-21T07:40:12;4.63;;;1.98;;
9418;SDS011;4748;50.802;7.132;2022-08-21T07:42:41;1.95;;;1.48;;
9418;SDS011;4748;50.802;7.132;2022-08-21T07:45:08;12.13;;;2.42;;
9418;SDS011;4748;50.802;7.132;2022-08-21T07:47:35;3.08;;;1.67;;
9418;SDS011;4748;50.802;7.132;2022-08-21T07:50:01;2.33;;;1.65;;
9418;SDS011;4748;50.802;7.132;2022-08-21T07:52:27;1.60;;;1.50;;
9418;SDS011;4748;50.802;7.132;2022-08-21T07:54:52;3.45;;;1.40;;
9418;SDS011;4748;50.802;7.132;2022-08-21T07:57:18;3.75;;;1.50;;
9418;SDS011;4748;50.802;7.132;2022-08-21T07:59:43;4.63;;;2.08;;
9418;SDS011;4748;50.802;7.132;2022-08-21T08:02:08;4.95;;;1.63;;
9418;SDS011;4748;50.802;7.132;2022-08-21T08:04:34;7.95;;;1.90;;
9418;SDS011;4748;50.802;7.132;2022-08-21T08:07:00;2.45;;;1.83;;
9418;SDS011;4748;50.802;7.132;2022-08-21T08:09:25;4.35;;;1.90;;
9418;SDS011;4748;50.802;7.132;2022-08-21T08:11:50;3.75;;;1.08;;
9418;SDS011;4748;50.802;7.132;2022-08-21T08:14:16;6.85;;;1.83;;
9418;SDS011;4748;50.802;7.132;2022-08-21T08:16:42;3.58;;;1.63;;
9418;SDS011;4748;50.802;7.132;2022-08-21T08:19:07;2.22;;;1.40;;
9418;SDS011;4748;50.802;7.132;2022-08-21T08:21:32;1.67;;;1.20;;
9418;SDS011;4748;50.802;7.132;2022-08-21T08:23:59;5.70;;;1.80;;
9418;SDS011;4748;50.802;7.132;2022-08-21T08:26:24;2.08;;;1.10;;
9418;SDS011;4748;50.802;7.132;2022-08-21T08:28:50;1.30;;;1.20;;
9418;SDS011;4748;50.802;7.132;2022-08-21T08:31:15;5.32;;;1.13;;
9418;SDS011;4748;50.802;7.132;2022-08-21T08:33:41;3.20;;;1.27;;
9418;SDS011;4748;50.802;7.132;2022-08-21T08:36:11;2.63;;;1.25;;
9418;SDS011;4748;50.802;7.132;2022-08-21T08:38:39;3.05;;;1.30;;
9418;SDS011;4748;50.802;7.132;2022-08-21T08:41:14;4.30;;;1.25;;
9418;SDS011;4748;50.802;7.132;2022-08-21T08:43:53;4.93;;;1.40;;
9418;SDS011;4748;50.802;7.132;2022-08-21T08:46:23;2.45;;;1.55;;
9418;SDS011;4748;50.802;7.132;2022-08-21T08:48:57;3.22;;;0.98;;
9418;SDS011;4748;50.802;7.132;2022-08-21T08:54:07;2.70;;;1.05;;
9418;SDS011;4748;50.802;7.132;2022-08-21T08:56:36;1.40;;;1.08;;
9418;SDS011;4748;50.802;7.132;2022-08-21T08:59:11;7.25;;;1.00;;
9418;SDS011;4748;50.802;7.132;2022-08-21T09:01:40;4.25;;;0.88;;
9418;SDS011;4748;50.802;7.132;2022-08-21T09:04:06;1.33;;;0.60;;
9418;SDS011;4748;50.802;7.132;2022-08-21T09:12:06;1.33;;;0.93;;
9418;SDS011;4748;50.802;7.132;2022-08-21T09:25:51;3.00;;;0.95;;
9418;SDS011;4748;50.802;7.132;2022-08-21T09:28:24;11.02;;;1.27;;
9418;SDS011;4748;50.802;7.132;2022-08-21T09:30:49;0.98;;;0.70;;
9418;SDS011;4748;50.802;7.132;2022-08-21T09:33:19;1.00;;;0.60;;
9418;SDS011;4748;50.802;7.132;2022-08-21T09:35:52;6.10;;;1.23;;
9418;SDS011;4748;50.802;7.132;2022-08-21T09:40:58;2.75;;;0.60;;
9418;SDS011;4748;50.802;7.132;2022-08-21T09:43:29;1.58;;;0.80;;
9418;SDS011;4748;50.802;7.132;2022-08-21T09:46:08;7.18;;;2.05;;
9418;SDS011;4748;50.802;7.132;2022-08-21T09:48:41;0.90;;;0.80;;
9418;SDS011;4748;50.802;7.132;2022-08-21T09:51:16;4.05;;;0.65;;
9418;SDS011;4748;50.802;7.132;2022-08-21T09:53:48;2.75;;;0.70;;
9418;SDS011;4748;50.802;7.132;2022-08-21T09:59:16;4.30;;;0.80;;
9418;SDS011;4748;50.802;7.132;2022-08-21T10:01:51;4.85;;;1.30;;
9418;SDS011;4748;50.802;7.132;2022-08-21T10:04:28;4.05;;;0.80;;
9418;SDS011;4748;50.802;7.132;2022-08-21T10:07:05;3.00;;;0.75;;
9418;SDS011;4748;50.802;7.132;2022-08-21T10:09:39;6.25;;;0.70;;
9418;SDS011;4748;50.802;7.132;2022-08-21T10:12:21;3.58;;;0.70;;
9418;SDS011;4748;50.802;7.132;2022-08-21T10:15:04;3.20;;;0.60;;
9418;SDS011;4748;50.802;7.132;2022-08-21T10:17:44;2.50;;;0.68;;
9418;SDS011;4748;50.802;7.132;2022-08-21T10:20:29;1.17;;;0.50;;
9418;SDS011;4748;50.802;7.132;2022-08-21T10:25:41;1.02;;;0.57;;
9418;SDS011;4748;50.802;7.132;2022-08-21T10:28:24;4.20;;;0.73;;
9418;SDS011;4748;50.802;7.132;2022-08-21T10:31:15;2.83;;;0.85;;
9418;SDS011;4748;50.802;7.132;2022-08-21T10:33:56;4.90;;;0.55;;
9418;SDS011;4748;50.802;7.132;2022-08-21T10:36:29;2.03;;;1.00;;
9418;SDS011;4748;50.802;7.132;2022-08-21T10:44:27;2.42;;;0.65;;
9418;SDS011;4748;50.802;7.132;2022-08-21T10:47:28;1.27;;;0.65;;
9418;SDS011;4748;50.802;7.132;2022-08-21T10:58:12;2.08;;;0.70;;
9418;SDS011;4748;50.802;7.132;2022-08-21T11:03:17;1.10;;;0.50;;
9418;SDS011;4748;50.802;7.132;2022-08-21T11:05:51;1.48;;;0.40;;
9418;SDS011;4748;50.802;7.132;2022-08-21T11:08:22;2.58;;;0.75;;
9418;SDS011;4748;50.802;7.132;2022-08-21T11:10:50;2.45;;;1.00;;
9418;SDS011;4748;50.802;7.132;2022-08-21T11:16:15;2.13;;;0.50;;
9418;SDS011;4748;50.802;7.132;2022-08-21T11:21:53;1.40;;;0.50;;
9418;SDS011;4748;50.802;7.132;2022-08-21T11:27:20;2.85;;;0.40;;
9418;SDS011;4748;50.802;7.132;2022-08-21T11:29:48;0.75;;;0.50;;
9418;SDS011;4748;50.802;7.132;2022-08-21T11:32:26;2.58;;;0.40;;
9418;SDS011;4748;50.802;7.132;2022-08-21T11:43:12;2.50;;;0.65;;
9418;SDS011;4748;50.802;7.132;2022-08-21T11:45:45;0.93;;;0.30;;
9418;SDS011;4748;50.802;7.132;2022-08-21T11:50:46;2.70;;;0.50;;
9418;SDS011;4748;50.802;7.132;2022-08-21T11:53:48;1.42;;;0.80;;
9418;SDS011;4748;50.802;7.132;2022-08-21T11:58:49;5.95;;;0.57;;
9418;SDS011;4748;50.802;7.132;2022-08-21T12:01:21;0.75;;;0.50;;
9418;SDS011;4748;50.802;7.132;2022-08-21T12:04:10;3.10;;;0.60;;
9418;SDS011;4748;50.802;7.132;2022-08-21T12:06:47;2.03;;;0.40;;
9418;SDS011;4748;50.802;7.132;2022-08-21T12:11:49;0.63;;;0.50;;
9418;SDS011;4748;50.802;7.132;2022-08-21T12:14:24;1.50;;;0.43;;
9418;SDS011;4748;50.802;7.132;2022-08-21T12:17:06;1.02;;;0.52;;
9418;SDS011;4748;50.802;7.132;2022-08-21T12:19:33;2.75;;;0.60;;
9418;SDS011;4748;50.802;7.132;2022-08-21T12:27:29;2.25;;;0.45;;
9418;SDS011;4748;50.802;7.132;2022-08-21T12:30:06;0.63;;;0.50;;
9418;SDS011;4748;50.802;7.132;2022-08-21T12:32:45;1.95;;;0.47;;
9418;SDS011;4748;50.802;7.132;2022-08-21T12:35:20;1.38;;;0.40;;
9418;SDS011;4748;50.802;7.132;2022-08-21T12:40:29;1.25;;;0.60;;
9418;SDS011;4748;50.802;7.132;2022-08-21T12:42:59;2.80;;;0.40;;
9418;SDS011;4748;50.802;7.132;2022-08-21T12:45:31;0.40;;;0.40;;
9418;SDS011;4748;50.802;7.132;2022-08-21T12:48:00;4.32;;;0.70;;
9418;SDS011;4748;50.802;7.132;2022-08-21T12:50:51;1.17;;;0.43;;
9418;SDS011;4748;50.802;7.132;2022-08-21T12:53:38;1.45;;;0.30;;
9418;SDS011;4748;50.802;7.132;2022-08-21T12:56:10;1.40;;;0.50;;
9418;SDS011;4748;50.802;7.132;2022-08-21T12:58:39;0.43;;;0.43;;
9418;SDS011;4748;50.802;7.132;2022-08-21T13:01:07;0.65;;;0.63;;
9418;SDS011;4748;50.802;7.132;2022-08-21T13:03:42;1.45;;;0.45;;
9418;SDS011;4748;50.802;7.132;2022-08-21T13:06:12;0.90;;;0.60;;
9418;SDS011;4748;50.802;7.132;2022-08-21T13:08:41;1.25;;;0.40;;
9418;SDS011;4748;50.802;7.132;2022-08-21T13:11:10;2.05;;;0.50;;
9418;SDS011;4748;50.802;7.132;2022-08-21T13:13:37;1.90;;;0.60;;
9418;SDS011;4748;50.802;7.132;2022-08-21T13:16:04;1.33;;;0.38;;
9418;SDS011;4748;50.802;7.132;2022-08-21T13:18:33;2.15;;;0.47;;
9418;SDS011;4748;50.802;7.132;2022-08-21T13:21:33;2.05;;;0.52;;
9418;SDS011;4748;50.802;7.132;2022-08-21T13:24:06;1.48;;;0.52;;
9418;SDS011;4748;50.802;7.132;2022-08-21T13:26:42;1.27;;;0.40;;
9418;SDS011;4748;50.802;7.132;2022-08-21T13:29:08;0.55;;;0.50;;
9418;SDS011;4748;50.802;7.132;2022-08-21T13:31:40;1.73;;;0.43;;
9418;SDS011;4748;50.802;7.132;2022-08-21T13:34:13;2.92;;;0.60;;
9418;SDS011;4748;50.802;7.132;2022-08-21T13:36:41;3.53;;;0.30;;
9418;SDS011;4748;50.802;7.132;2022-08-21T13:39:08;2.30;;;0.55;;
9418;SDS011;4748;50.802;7.132;2022-08-21T13:41:37;1.63;;;0.50;;
9418;SDS011;4748;50.802;7.132;2022-08-21T13:44:13;0.95;;;0.32;;
9418;SDS011;4748;50.802;7.132;2022-08-21T13:46:47;3.33;;;0.40;;
9418;SDS011;4748;50.802;7.132;2022-08-21T13:49:16;5.05;;;0.75;;
9418;SDS011;4748;50.802;7.132;2022-08-21T13:51:43;0.32;;;0.32;;
9418;SDS011;4748;50.802;7.132;2022-08-21T13:54:25;0.73;;;0.70;;
9418;SDS011;4748;50.802;7.132;2022-08-21T13:57:01;1.73;;;0.40;;
9418;SDS011;4748;50.802;7.132;2022-08-21T13:59:32;1.33;;;0.40;;
9418;SDS011;4748;50.802;7.132;2022-08-21T14:07:17;1.48;;;0.30;;
9418;SDS011;4748;50.802;7.132;2022-08-21T14:09:46;2.58;;;0.40;;
9418;SDS011;4748;50.802;7.132;2022-08-21T14:12:26;1.38;;;0.40;;
9418;SDS011;4748;50.802;7.132;2022-08-21T14:14:55;1.15;;;0.40;;
9418;SDS011;4748;50.802;7.132;2022-08-21T14:17:27;2.75;;;0.70;;
9418;SDS011;4748;50.802;7.132;2022-08-21T14:19:54;0.43;;;0.38;;
9418;SDS011;4748;50.802;7.132;2022-08-21T14:25:07;0.75;;;0.57;;
9418;SDS011;4748;50.802;7.132;2022-08-21T14:27:40;0.57;;;0.45;;
9418;SDS011;4748;50.802;7.132;2022-08-21T14:30:36;0.35;;;0.30;;
9418;SDS011;4748;50.802;7.132;2022-08-21T14:33:04;1.27;;;0.45;;
9418;SDS011;4748;50.802;7.132;2022-08-21T14:35:34;2.15;;;0.50;;
9418;SDS011;4748;50.802;7.132;2022-08-21T14:38:00;0.82;;;0.50;;
9418;SDS011;4748;50.802;7.132;2022-08-21T14:40:25;0.55;;;0.40;;
9418;SDS011;4748;50.802;7.132;2022-08-21T14:42:51;1.40;;;0.60;;
9418;SDS011;4748;50.802;7.132;2022-08-21T14:45:23;0.57;;;0.30;;
9418;SDS011;4748;50.802;7.132;2022-08-21T14:47:52;1.63;;;0.30;;
9418;SDS011;4748;50.802;7.132;2022-08-21T14:50:17;2.78;;;0.35;;
9418;SDS011;4748;50.802;7.132;2022-08-21T14:52:43;1.23;;;0.47;;
9418;SDS011;4748;50.802;7.132;2022-08-21T14:55:10;2.42;;;0.50;;
9418;SDS011;4748;50.802;7.132;2022-08-21T14:57:41;1.65;;;0.40;;
9418;SDS011;4748;50.802;7.132;2022-08-21T15:00:10;0.63;;;0.63;;
9418;SDS011;4748;50.802;7.132;2022-08-21T15:02:38;0.95;;;0.43;;
9418;SDS011;4748;50.802;7.132;2022-08-21T15:05:04;1.15;;;0.60;;
9418;SDS011;4748;50.802;7.132;2022-08-21T15:07:29;2.85;;;0.65;;
9418;SDS011;4748;50.802;7.132;2022-08-21T15:09:55;0.45;;;0.45;;
9418;SDS011;4748;50.802;7.132;2022-08-21T15:12:20;1.13;;;0.47;;
9418;SDS011;4748;50.802;7.132;2022-08-21T15:14:46;0.82;;;0.50;;
9418;SDS011;4748;50.802;7.132;2022-08-21T15:17:11;0.52;;;0.22;;
9418;SDS011;4748;50.802;7.132;2022-08-21T15:19:37;0.40;;;0.40;;
9418;SDS011;4748;50.802;7.132;2022-08-21T15:22:03;3.40;;;0.60;;
9418;SDS011;4748;50.802;7.132;2022-08-21T15:24:29;0.60;;;0.60;;
9418;SDS011;4748;50.802;7.132;2022-08-21T15:26:55;1.10;;;0.82;;
9418;SDS011;4748;50.802;7.132;2022-08-21T15:29:23;1.95;;;0.60;;
9418;SDS011;4748;50.802;7.132;2022-08-21T15:31:55;5.35;;;0.77;;
9418;SDS011;4748;50.802;7.132;2022-08-21T15:34:23;0.55;;;0.40;;
9418;SDS011;4748;50.802;7.132;2022-08-21T15:36:49;1.65;;;0.30;;
9418;SDS011;4748;50.802;7.132;2022-08-21T15:39:15;2.60;;;0.55;;
9418;SDS011;4748;50.802;7.132;2022-08-21T15:41:40;6.10;;;0.60;;
9418;SDS011;4748;50.802;7.132;2022-08-21T15:44:06;1.65;;;0.63;;
9418;SDS011;4748;50.802;7.132;2022-08-21T15:46:33;7.22;;;0.70;;
9418;SDS011;4748;50.802;7.132;2022-08-21T15:48:59;5.45;;;0.50;;
9418;SDS011;4748;50.802;7.132;2022-08-21T15:51:24;0.75;;;0.45;;
9418;SDS011;4748;50.802;7.132;2022-08-21T15:53:49;2.90;;;0.70;;
9418;SDS011;4748;50.802;7.132;2022-08-21T15:56:22;1.88;;;0.40;;
9418;SDS011;4748;50.802;7.132;2022-08-21T15:58:51;6.25;;;0.50;;
9418;SDS011;4748;50.802;7.132;2022-08-21T16:01:19;3.70;;;0.55;;
9418;SDS011;4748;50.802;7.132;2022-08-21T16:03:46;1.33;;;0.50;;
9418;SDS011;4748;50.802;7.132;2022-08-21T16:06:14;0.90;;;0.90;;
9418;SDS011;4748;50.802;7.132;2022-08-21T16:08:40;0.88;;;0.57;;
9418;SDS011;4748;50.802;7.132;2022-08-21T16:11:05;0.75;;;0.75;;
9418;SDS011;4748;50.802;7.132;2022-08-21T16:13:34;1.52;;;0.88;;
9418;SDS011;4748;50.802;7.132;2022-08-21T16:16:02;4.95;;;0.57;;
9418;SDS011;4748;50.802;7.132;2022-08-21T16:18:28;0.50;;;0.47;;
9418;SDS011;4748;50.802;7.132;2022-08-21T16:20:54;0.93;;;0.30;;
9418;SDS011;4748;50.802;7.132;2022-08-21T16:23:19;0.80;;;0.63;;
9418;SDS011;4748;50.802;7.132;2022-08-21T16:25:44;0.40;;;0.40;;
9418;SDS011;4748;50.802;7.132;2022-08-21T16:28:12;2.08;;;0.50;;
9418;SDS011;4748;50.802;7.132;2022-08-21T16:30:39;1.45;;;0.30;;
9418;SDS011;4748;50.802;7.132;2022-08-21T16:33:05;1.88;;;0.22;;
9418;SDS011;4748;50.802;7.132;2022-08-21T16:35:36;2.17;;;0.60;;
9418;SDS011;4748;50.802;7.132;2022-08-21T16:38:02;2.17;;;0.50;;
9418;SDS011;4748;50.802;7.132;2022-08-21T16:40:27;1.38;;;0.68;;
9418;SDS011;4748;50.802;7.132;2022-08-21T16:42:53;1.00;;;0.90;;
9418;SDS011;4748;50.802;7.132;2022-08-21T16:45:19;1.92;;;0.47;;
9418;SDS011;4748;50.802;7.132;2022-08-21T16:47:45;4.10;;;0.45;;
9418;SDS011;4748;50.802;7.132;2022-08-21T16:50:16;1.33;;;0.47;;
9418;SDS011;4748;50.802;7.132;2022-08-21T16:52:46;0.30;;;0.30;;
9418;SDS011;4748;50.802;7.132;2022-08-21T16:55:12;2.25;;;0.40;;
9418;SDS011;4748;50.802;7.132;2022-08-21T16:57:37;1.92;;;0.40;;
9418;SDS011;4748;50.802;7.132;2022-08-21T17:00:03;1.75;;;0.38;;
9418;SDS011;4748;50.802;7.132;2022-08-21T17:02:36;0.35;;;0.20;;
9418;SDS011;4748;50.802;7.132;2022-08-21T17:05:04;1.63;;;0.82;;
9418;SDS011;4748;50.802;7.132;2022-08-21T17:07:30;0.47;;;0.40;;
9418;SDS011;4748;50.802;7.132;2022-08-21T17:09:56;0.38;;;0.38;;
9418;SDS011;4748;50.802;7.132;2022-08-21T17:12:22;3.95;;;0.30;;
9418;SDS011;4748;50.802;7.132;2022-08-21T17:14:47;3.75;;;0.50;;
9418;SDS011;4748;50.802;7.132;2022-08-21T17:17:13;0.40;;;0.40;;
9418;SDS011;4748;50.802;7.132;2022-08-21T17:19:39;0.30;;;0.30;;
9418;SDS011;4748;50.802;7.132;2022-08-21T17:22:06;2.42;;;0.68;;
9418;SDS011;4748;50.802;7.132;2022-08-21T17:24:33;2.05;;;0.30;;
9418;SDS011;4748;50.802;7.132;2022-08-21T17:26:59;0.77;;;0.40;;
9418;SDS011;4748;50.802;7.132;2022-08-21T17:29:28;1.85;;;0.32;;
9418;SDS011;4748;50.802;7.132;2022-08-21T17:31:57;6.53;;;0.43;;
9418;SDS011;4748;50.802;7.132;2022-08-21T17:34:23;3.13;;;0.30;;
9418;SDS011;4748;50.802;7.132;2022-08-21T17:36:49;1.48;;;0.30;;
9418;SDS011;4748;50.802;7.132;2022-08-21T17:39:14;9.38;;;0.88;;
9418;SDS011;4748;50.802;7.132;2022-08-21T17:41:41;1.00;;;0.35;;
9418;SDS011;4748;50.802;7.132;2022-08-21T17:44:07;0.93;;;0.38;;
9418;SDS011;4748;50.802;7.132;2022-08-21T17:46:34;0.60;;;0.40;;
9418;SDS011;4748;50.802;7.132;2022-08-21T17:49:03;2.55;;;0.30;;
9418;SDS011;4748;50.802;7.132;2022-08-21T17:51:29;2.08;;;0.60;;
9418;SDS011;4748;50.802;7.132;2022-08-21T17:53:55;1.30;;;0.43;;
9418;SDS011;4748;50.802;7.132;2022-08-21T17:56:21;1.40;;;0.32;;
9418;SDS011;4748;50.802;7.132;2022-08-21T17:58:49;1.58;;;0.50;;
9418;SDS011;4748;50.802;7.132;2022-08-21T18:01:16;2.55;;;0.65;;
9418;SDS011;4748;50.802;7.132;2022-08-21T18:03:43;0.63;;;0.57;;
9418;SDS011;4748;50.802;7.132;2022-08-21T18:06:11;0.20;;;0.20;;
9418;SDS011;4748;50.802;7.132;2022-08-21T18:08:36;3.65;;;0.50;;
9418;SDS011;4748;50.802;7.132;2022-08-21T18:11:02;0.95;;;0.40;;
9418;SDS011;4748;50.802;7.132;2022-08-21T18:13:29;1.25;;;0.30;;
9418;SDS011;4748;50.802;7.132;2022-08-21T18:15:58;2.20;;;0.30;;
9418;SDS011;4748;50.802;7.132;2022-08-21T18:18:24;2.55;;;0.70;;
9418;SDS011;4748;50.802;7.132;2022-08-21T18:20:51;1.48;;;0.65;;
9418;SDS011;4748;50.802;7.132;2022-08-21T18:23:17;0.40;;;0.40;;
9418;SDS011;4748;50.802;7.132;2022-08-21T18:25:45;0.73;;;0.52;;
9418;SDS011;4748;50.802;7.132;2022-08-21T18:28:15;2.35;;;0.32;;
9418;SDS011;4748;50.802;7.132;2022-08-21T18:30:42;0.77;;;0.52;;
9418;SDS011;4748;50.802;7.132;2022-08-21T18:33:08;0.55;;;0.40;;
9418;SDS011;4748;50.802;7.132;2022-08-21T18:35:36;2.78;;;0.68;;
9418;SDS011;4748;50.802;7.132;2022-08-21T18:38:02;4.95;;;0.47;;
9418;SDS011;4748;50.802;7.132;2022-08-21T18:40:28;2.63;;;0.68;;
9418;SDS011;4748;50.802;7.132;2022-08-21T18:42:55;4.43;;;0.50;;
9418;SDS011;4748;50.802;7.132;2022-08-21T18:45:20;1.50;;;0.40;;
9418;SDS011;4748;50.802;7.132;2022-08-21T18:47:48;7.70;;;0.47;;
9418;SDS011;4748;50.802;7.132;2022-08-21T18:50:16;0.88;;;0.35;;
9418;SDS011;4748;50.802;7.132;2022-08-21T18:52:43;0.45;;;0.30;;
9418;SDS011;4748;50.802;7.132;2022-08-21T18:55:10;0.22;;;0.20;;
9418;SDS011;4748;50.802;7.132;2022-08-21T18:57:37;1.23;;;0.60;;
9418;SDS011;4748;50.802;7.132;2022-08-21T19:00:06;1.90;;;0.63;;
9418;SDS011;4748;50.802;7.132;2022-08-21T19:02:38;1.55;;;0.40;;
9418;SDS011;4748;50.802;7.132;2022-08-21T19:05:04;1.30;;;0.55;;
9418;SDS011;4748;50.802;7.132;2022-08-21T19:07:32;0.95;;;0.50;;
9418;SDS011;4748;50.802;7.132;2022-08-21T19:09:58;0.80;;;0.60;;
9418;SDS011;4748;50.802;7.132;2022-08-21T19:12:24;0.32;;;0.32;;
9418;SDS011;4748;50.802;7.132;2022-08-21T19:14:51;0.50;;;0.38;;
9418;SDS011;4748;50.802;7.132;2022-08-21T19:17:17;0.50;;;0.50;;
9418;SDS011;4748;50.802;7.132;2022-08-21T19:19:42;2.70;;;0.35;;
9418;SDS011;4748;50.802;7.132;2022-08-21T19:22:08;0.82;;;0.43;;
9418;SDS011;4748;50.802;7.132;2022-08-21T19:24:33;5.78;;;0.73;;
9418;SDS011;4748;50.802;7.132;2022-08-21T19:26:59;1.52;;;0.40;;
9418;SDS011;4748;50.802;7.132;2022-08-21T19:29:24;0.25;;;0.22;;
9418;SDS011;4748;50.802;7.132;2022-08-21T19:31:50;3.35;;;0.52;;
9418;SDS011;4748;50.802;7.132;2022-08-21T19:34:19;3.25;;;0.50;;
9418;SDS011;4748;50.802;7.132;2022-08-21T19:36:47;0.90;;;0.63;;
9418;SDS011;4748;50.802;7.132;2022-08-21T19:39:14;0.45;;;0.30;;
9418;SDS011;4748;50.802;7.132;2022-08-21T19:41:42;0.40;;;0.40;;
9418;SDS011;4748;50.802;7.132;2022-08-21T19:44:12;1.15;;;0.52;;
9418;SDS011;4748;50.802;7.132;2022-08-21T19:46:41;1.27;;;0.75;;
9418;SDS011;4748;50.802;7.132;2022-08-21T19:49:09;0.93;;;0.30;;
9418;SDS011;4748;50.802;7.132;2022-08-21T19:51:38;2.30;;;0.80;;
9418;SDS011;4748;50.802;7.132;2022-08-21T19:54:04;0.68;;;0.50;;
9418;SDS011;4748;50.802;7.132;2022-08-21T19:56:31;4.50;;;0.65;;
9418;SDS011;4748;50.802;7.132;2022-08-21T19:58:57;1.65;;;0.73;;
9418;SDS011;4748;50.802;7.132;2022-08-21T20:01:23;2.17;;;0.43;;
9418;SDS011;4748;50.802;7.132;2022-08-21T20:03:50;1.25;;;0.68;;
9418;SDS011;4748;50.802;7.132;2022-08-21T20:06:16;1.10;;;0.63;;
9418;SDS011;4748;50.802;7.132;2022-08-21T20:08:42;4.68;;;0.57;;
9418;SDS011;4748;50.802;7.132;2022-08-21T20:11:09;1.67;;;0.43;;
9418;SDS011;4748;50.802;7.132;2022-08-21T20:13:37;1.33;;;0.60;;
9418;SDS011;4748;50.802;7.132;2022-08-21T20:16:04;4.25;;;0.60;;
9418;SDS011;4748;50.802;7.132;2022-08-21T20:18:32;3.95;;;0.47;;